Time;durP1;ratioP1;P1;durP2;ratioP2;P2;SDS_P1;SDS_P2;PMS_P1;PMS_P2;Temp;Humidity;BMP_temperature;BMP_pressure;BME280_temperature;BME280_humidity;BME280_pressure;Samples;Min_cycle;Max_cycle;Signal;HPM_P1;HPM_P2
2022/12/17 13:09:51;;;;;;;52.92;18.45;;;;;;;;;;8345872;28;20049;-82
2022/12/17 13:13:58;;;;;;;51.67;18.85;;;;;;;;;;8336903;28;20060;-92
2022/12/17 13:18:19;;;;;;;52.50;18.25;;;;;;;;;;8356339;28;20067;-92
2022/12/17 13:22:29;;;;;;;43.38;14.25;;;;;;;;;;8337688;28;20052;-84
2022/12/17 13:26:44;;;;;;;27.30;13.05;;;;;;;;;;8330216;28;20061;-82
2022/12/17 13:30:47;;;;;;;52.50;15.95;;;;;;;;;;8335212;28;20409;-81
2022/12/17 13:35:07;;;;;;;62.90;20.88;;;;;;;;;;8331046;28;20123;-85
2022/12/17 13:39:28;;;;;;;46.03;18.38;;;;;;;;;;8328217;28;20124;-89
2022/12/17 13:43:40;;;;;;;53.70;19.98;;;;;;;;;;8334843;28;20052;-90
2022/12/17 13:47:52;;;;;;;54.33;17.02;;;;;;;;;;8338996;28;20057;-81
2022/12/17 13:52:06;;;;;;;52.08;20.20;;;;;;;;;;8329732;28;20044;-82
2022/12/17 13:56:10;;;;;;;65.07;21.92;;;;;;;;;;8331158;28;20045;-85
2022/12/17 14:00:21;;;;;;;62.80;22.85;;;;;;;;;;8348146;28;20044;-87
2022/12/17 14:04:26;;;;;;;44.40;17.65;;;;;;;;;;8337965;28;20048;-82
2022/12/17 14:08:33;;;;;;;50.28;19.90;;;;;;;;;;8342611;28;20102;-83
2022/12/17 14:12:37;;;;;;;74.03;24.75;;;;;;;;;;8345123;28;20068;-87
2022/12/17 14:16:43;;;;;;;70.90;22.17;;;;;;;;;;8341365;28;20044;-84
2022/12/17 14:20:54;;;;;;;62.95;23.08;;;;;;;;;;8335527;28;20453;-86
2022/12/17 14:25:02;;;;;;;62.50;22.67;;;;;;;;;;8337081;28;20084;-81
2022/12/17 14:29:13;;;;;;;58.40;22.20;;;;;;;;;;8333585;28;20076;-89
2022/12/17 14:33:29;;;;;;;56.97;22.10;;;;;;;;;;8333365;28;20677;-82
2022/12/17 14:37:33;;;;;;;68.40;22.20;;;;;;;;;;8333430;28;20049;-81
2022/12/17 14:46:22;;;;;;;75.32;25.70;;;;;;;;;;8338855;28;20041;-80
2022/12/17 14:50:31;;;;;;;66.93;24.33;;;;;;;;;;8332612;28;20420;-92
2022/12/17 14:54:36;;;;;;;75.45;28.80;;;;;;;;;;8350514;28;20518;-90
2022/12/17 14:58:47;;;;;;;92.13;32.65;;;;;;;;;;8332126;28;20060;-87
2022/12/17 15:02:54;;;;;;;86.20;29.45;;;;;;;;;;8340376;28;20531;-85
2022/12/17 15:06:57;;;;;;;53.35;20.83;;;;;;;;;;8340624;28;20496;-89
2022/12/17 15:11:00;;;;;;;56.00;22.58;;;;;;;;;;8329115;28;20481;-83
2022/12/17 15:15:06;;;;;;;70.82;22.92;;;;;;;;;;8341861;28;20530;-82
2022/12/17 15:19:09;;;;;;;54.13;20.33;;;;;;;;;;8329955;28;20041;-83
2022/12/17 15:23:19;;;;;;;78.18;24.13;;;;;;;;;;8355552;28;20057;-91
2022/12/17 15:27:22;;;;;;;70.63;21.48;;;;;;;;;;8337863;28;20045;-86
2022/12/17 15:31:27;;;;;;;43.20;16.30;;;;;;;;;;8334891;28;20042;-89
2022/12/17 15:35:30;;;;;;;38.67;14.32;;;;;;;;;;8331317;28;20056;-79
2022/12/17 15:39:37;;;;;;;50.95;17.42;;;;;;;;;;8345457;28;20128;-86
2022/12/17 15:43:40;;;;;;;76.13;23.00;;;;;;;;;;8331150;28;20495;-90
2022/12/17 15:47:44;;;;;;;34.00;10.60;;;;;;;;;;8334848;28;20083;-87
2022/12/17 15:51:47;;;;;;;36.35;14.05;;;;;;;;;;8348169;28;20053;-84
2022/12/17 15:55:50;;;;;;;70.28;22.83;;;;;;;;;;8347650;28;20063;-85
2022/12/17 15:59:53;;;;;;;75.18;24.00;;;;;;;;;;8335191;28;20448;-88
2022/12/17 16:03:58;;;;;;;63.05;21.65;;;;;;;;;;8343311;28;20055;-86
2022/12/17 16:08:01;;;;;;;75.13;24.92;;;;;;;;;;8329860;28;20054;-83
2022/12/17 16:12:05;;;;;;;24.98;8.95;;;;;;;;;;8332767;28;20048;-81
2022/12/17 16:16:14;;;;;;;45.85;15.50;;;;;;;;;;8337376;28;20386;-80
2022/12/17 16:20:18;;;;;;;85.82;26.45;;;;;;;;;;8331569;28;20487;-86
2022/12/17 16:24:24;;;;;;;94.82;31.08;;;;;;;;;;8331681;28;20132;-82
2022/12/17 16:28:29;;;;;;;74.90;24.77;;;;;;;;;;8336146;28;20400;-82
2022/12/17 16:32:32;;;;;;;78.68;24.20;;;;;;;;;;8344892;28;20107;-82
2022/12/17 16:36:43;;;;;;;78.85;26.15;;;;;;;;;;8332584;28;20053;-88
2022/12/17 16:40:48;;;;;;;82.53;23.98;;;;;;;;;;8334269;28;20064;-90
2022/12/17 16:44:51;;;;;;;82.85;24.75;;;;;;;;;;8328084;28;20092;-82
2022/12/17 16:48:56;;;;;;;79.68;23.65;;;;;;;;;;8326076;28;20140;-81
2022/12/17 16:53:02;;;;;;;52.40;18.77;;;;;;;;;;8344457;28;20041;-84
2022/12/17 16:57:06;;;;;;;59.90;17.77;;;;;;;;;;8348257;28;20049;-88
2022/12/17 17:01:11;;;;;;;86.50;26.75;;;;;;;;;;8332273;28;20389;-82
2022/12/17 17:05:19;;;;;;;46.25;15.88;;;;;;;;;;8340938;28;20083;-81
2022/12/17 17:09:27;;;;;;;61.80;21.13;;;;;;;;;;8353950;28;20092;-81
2022/12/17 17:13:31;;;;;;;62.88;22.17;;;;;;;;;;8336744;28;20496;-85
2022/12/17 17:17:34;;;;;;;53.10;22.20;;;;;;;;;;8324870;28;20104;-82
2022/12/17 17:21:39;;;;;;;43.47;15.63;;;;;;;;;;8349102;28;20109;-86
2022/12/17 17:25:44;;;;;;;70.93;21.08;;;;;;;;;;8341056;28;20046;-81
2022/12/17 17:29:47;;;;;;;80.00;20.75;;;;;;;;;;8352218;28;20102;-83
2022/12/17 17:33:53;;;;;;;63.38;19.02;;;;;;;;;;8336251;28;20045;-82
2022/12/17 17:37:57;;;;;;;56.75;21.25;;;;;;;;;;8349427;28;20072;-82
2022/12/17 17:42:01;;;;;;;58.63;21.30;;;;;;;;;;8342580;28;20055;-84
2022/12/17 17:46:07;;;;;;;14.20;6.38;;;;;;;;;;8341614;28;20056;-85
2022/12/17 17:50:12;;;;;;;27.75;11.05;;;;;;;;;;8344426;28;20076;-81
2022/12/17 17:54:15;;;;;;;18.50;9.80;;;;;;;;;;8347735;28;20077;-83
2022/12/17 17:58:24;;;;;;;17.60;6.53;;;;;;;;;;8333211;28;20083;-82
2022/12/17 18:02:29;;;;;;;59.10;22.85;;;;;;;;;;8337756;28;20053;-81
2022/12/17 18:06:36;;;;;;;50.65;19.38;;;;;;;;;;8338163;28;20092;-82
2022/12/17 18:10:39;;;;;;;59.88;19.98;;;;;;;;;;8356181;28;20471;-82
2022/12/17 18:14:46;;;;;;;63.15;20.58;;;;;;;;;;8347588;28;20416;-83
2022/12/17 18:18:52;;;;;;;52.00;19.95;;;;;;;;;;8334226;28;20817;-82
2022/12/17 18:22:55;;;;;;;57.60;22.02;;;;;;;;;;8331216;28;20045;-86
2022/12/17 18:26:59;;;;;;;60.03;19.33;;;;;;;;;;8341654;28;20425;-86
2022/12/17 18:31:12;;;;;;;62.90;20.52;;;;;;;;;;8347231;28;20477;-84
2022/12/17 18:35:15;;;;;;;57.67;19.35;;;;;;;;;;8341901;28;20057;-90
2022/12/17 18:39:21;;;;;;;40.50;16.75;;;;;;;;;;8340053;28;20049;-86
2022/12/17 18:43:24;;;;;;;56.53;18.90;;;;;;;;;;8341015;28;20488;-89
2022/12/17 18:47:31;;;;;;;69.60;22.83;;;;;;;;;;8346597;28;20056;-82
2022/12/17 18:51:38;;;;;;;20.92;7.57;;;;;;;;;;8339087;28;20139;-80
2022/12/17 18:55:52;;;;;;;22.33;5.70;;;;;;;;;;8344357;28;20049;-82
2022/12/17 19:00:09;;;;;;;40.00;15.15;;;;;;;;;;8338328;28;20056;-86
2022/12/17 19:04:31;;;;;;;45.85;17.17;;;;;;;;;;8340108;28;20045;-81
2022/12/17 19:08:46;;;;;;;71.10;23.67;;;;;;;;;;8355481;28;20504;-81
2022/12/17 19:12:53;;;;;;;49.63;17.33;;;;;;;;;;8337375;28;20303;-83
2022/12/17 19:17:07;;;;;;;51.08;18.35;;;;;;;;;;8344615;28;20465;-83
2022/12/17 19:21:18;;;;;;;59.35;20.70;;;;;;;;;;8336177;28;20127;-82
2022/12/17 19:25:26;;;;;;;39.78;13.10;;;;;;;;;;8348482;28;20531;-81
2022/12/17 19:29:29;;;;;;;10.73;5.13;;;;;;;;;;8345432;28;20052;-81
2022/12/17 19:33:32;;;;;;;37.53;11.23;;;;;;;;;;8360642;28;20056;-92
2022/12/17 19:37:37;;;;;;;50.83;19.35;;;;;;;;;;8350130;28;20099;-88
2022/12/17 19:41:42;;;;;;;50.03;15.80;;;;;;;;;;8347751;28;20037;-91
2022/12/17 19:45:45;;;;;;;47.70;15.90;;;;;;;;;;8353374;28;20037;-92
2022/12/17 19:49:49;;;;;;;48.05;16.15;;;;;;;;;;8345429;28;20115;-90
2022/12/17 19:54:01;;;;;;;71.03;19.80;;;;;;;;;;8349224;28;20045;-91
2022/12/17 19:58:05;;;;;;;48.33;16.55;;;;;;;;;;8341898;28;20055;-89
2022/12/17 20:02:10;;;;;;;40.35;15.27;;;;;;;;;;8341572;28;20065;-91
2022/12/17 20:06:15;;;;;;;46.75;17.60;;;;;;;;;;8351259;28;20052;-93
2022/12/17 20:10:28;;;;;;;36.53;14.27;;;;;;;;;;8358063;28;20040;-92
2022/12/17 20:14:42;;;;;;;42.25;11.88;;;;;;;;;;8353633;28;20060;-91
2022/12/17 20:18:46;;;;;;;38.85;13.88;;;;;;;;;;8353427;28;20481;-90
2022/12/17 20:22:51;;;;;;;41.95;14.20;;;;;;;;;;8350396;28;20473;-91
2022/12/17 20:26:56;;;;;;;43.97;12.52;;;;;;;;;;8344494;28;20057;-92
2022/12/17 20:30:59;;;;;;;28.63;13.73;;;;;;;;;;8336605;28;20048;-88
2022/12/17 20:35:06;;;;;;;34.00;13.55;;;;;;;;;;8347589;28;20037;-82
2022/12/17 20:39:10;;;;;;;45.33;16.27;;;;;;;;;;8335983;28;20045;-90
2022/12/17 20:43:16;;;;;;;38.88;14.75;;;;;;;;;;8334089;28;20048;-92
2022/12/17 20:47:19;;;;;;;43.63;15.43;;;;;;;;;;8354073;28;20512;-91
2022/12/17 20:51:25;;;;;;;45.53;12.95;;;;;;;;;;8331067;28;20042;-93
2022/12/17 20:55:27;;;;;;;41.03;13.48;;;;;;;;;;8342787;28;20396;-91
2022/12/17 20:59:32;;;;;;;48.85;14.43;;;;;;;;;;8342914;28;20073;-89
2022/12/17 21:03:40;;;;;;;32.95;12.50;;;;;;;;;;8349192;28;20091;-81
2022/12/17 21:07:44;;;;;;;48.78;15.27;;;;;;;;;;8343500;28;20037;-79
2022/12/17 21:11:48;;;;;;;46.03;16.13;;;;;;;;;;8353093;28;20532;-90
2022/12/17 21:15:53;;;;;;;32.72;13.38;;;;;;;;;;8347887;28;20084;-86
2022/12/17 21:20:01;;;;;;;54.72;15.68;;;;;;;;;;8354072;28;20381;-87
2022/12/17 21:24:07;;;;;;;35.25;14.63;;;;;;;;;;8360867;28;20458;-91
2022/12/17 21:28:10;;;;;;;40.25;13.80;;;;;;;;;;8362709;28;20069;-90
2022/12/17 21:32:15;;;;;;;43.10;16.23;;;;;;;;;;8350783;28;20053;-89
2022/12/17 21:36:19;;;;;;;36.38;14.43;;;;;;;;;;8347740;28;20037;-90
2022/12/17 21:40:22;;;;;;;37.35;14.32;;;;;;;;;;8362446;28;20473;-91
2022/12/17 21:44:25;;;;;;;39.60;14.57;;;;;;;;;;8361681;28;20048;-92
2022/12/17 21:48:30;;;;;;;53.22;19.02;;;;;;;;;;8362065;28;20452;-79
2022/12/17 21:52:33;;;;;;;57.15;16.65;;;;;;;;;;8361723;28;20456;-81
2022/12/17 21:56:37;;;;;;;35.90;14.18;;;;;;;;;;8349025;28;20052;-89
2022/12/17 22:00:40;;;;;;;41.83;15.40;;;;;;;;;;8361710;28;20187;-79
2022/12/17 22:04:44;;;;;;;46.55;17.88;;;;;;;;;;8361788;28;20041;-84
2022/12/17 22:08:48;;;;;;;43.88;16.10;;;;;;;;;;8348144;28;20051;-91
2022/12/17 22:17:11;;;;;;;39.97;13.20;;;;;;;;;;8353878;28;20053;-91
2022/12/17 22:21:16;;;;;;;38.25;14.77;;;;;;;;;;8367379;28;20045;-88
2022/12/17 22:25:19;;;;;;;39.72;14.98;;;;;;;;;;8367095;28;20045;-82
2022/12/17 22:33:39;;;;;;;35.85;12.60;;;;;;;;;;8367128;28;20049;-89
2022/12/17 22:37:43;;;;;;;49.35;14.85;;;;;;;;;;8366931;28;20065;-80
2022/12/17 22:46:06;;;;;;;42.17;14.75;;;;;;;;;;8367320;28;20539;-90
2022/12/17 22:50:10;;;;;;;49.17;15.23;;;;;;;;;;8359004;28;20041;-81
2022/12/17 22:54:14;;;;;;;46.97;15.02;;;;;;;;;;8341518;28;20472;-87
2022/12/17 22:58:17;;;;;;;42.03;17.02;;;;;;;;;;8360052;28;20049;-91
2022/12/17 23:02:20;;;;;;;29.45;11.40;;;;;;;;;;8353012;28;20579;-85
2022/12/17 23:06:23;;;;;;;41.90;15.20;;;;;;;;;;8365983;28;20045;-88
2022/12/17 23:10:28;;;;;;;30.20;11.23;;;;;;;;;;8365841;28;20048;-88
2022/12/17 23:14:31;;;;;;;33.53;12.70;;;;;;;;;;8365940;28;20131;-80
2022/12/17 23:18:34;;;;;;;29.85;11.73;;;;;;;;;;8346071;28;20049;-82
2022/12/17 23:22:36;;;;;;;33.60;11.85;;;;;;;;;;8359314;28;20045;-90
2022/12/17 23:26:40;;;;;;;38.60;14.95;;;;;;;;;;8352519;28;20132;-88
2022/12/17 23:30:43;;;;;;;25.48;9.95;;;;;;;;;;8352381;28;20049;-79
2022/12/17 23:34:46;;;;;;;22.20;9.85;;;;;;;;;;8364718;28;20072;-91
2022/12/17 23:38:49;;;;;;;32.88;12.63;;;;;;;;;;8365559;28;20041;-91
2022/12/17 23:42:56;;;;;;;26.85;10.32;;;;;;;;;;8351689;28;20040;-80
2022/12/17 23:46:58;;;;;;;25.52;10.10;;;;;;;;;;8364435;28;20052;-90
2022/12/17 23:51:02;;;;;;;33.67;12.65;;;;;;;;;;8364554;28;20045;-89
2022/12/17 23:55:05;;;;;;;31.73;12.43;;;;;;;;;;8363877;28;20053;-84
2022/12/17 23:59:10;;;;;;;37.80;12.50;;;;;;;;;;8364015;28;20120;-90
